createdAt,value
2024-04-30T00:00:20.479Z,4.08
2024-04-30T00:02:50.379Z,4.93
2024-04-30T00:05:20.391Z,4.60
2024-04-30T00:07:50.476Z,4.63
2024-04-30T00:10:20.248Z,4.63
2024-04-30T00:12:50.116Z,4.53
2024-04-30T00:15:19.720Z,4.90
2024-04-30T00:17:49.662Z,4.80
2024-04-30T00:20:19.314Z,4.70
2024-04-30T00:22:49.221Z,4.60
2024-04-30T00:25:18.821Z,4.70
2024-04-30T00:27:50.005Z,5.70
2024-04-30T00:30:21.167Z,4.97
2024-04-30T00:32:51.926Z,4.60
2024-04-30T00:35:24.742Z,4.95
2024-04-30T00:37:54.713Z,5.13
2024-04-30T00:40:24.692Z,4.85
2024-04-30T00:42:54.264Z,5.00
2024-04-30T00:45:24.120Z,5.10
2024-04-30T00:47:54.296Z,4.70
2024-04-30T00:50:24.888Z,4.70
2024-04-30T00:52:55.491Z,4.65
2024-04-30T00:55:25.408Z,4.55
2024-04-30T00:57:55.528Z,4.90
2024-04-30T01:00:25.847Z,4.60
2024-04-30T01:02:56.286Z,5.12
2024-04-30T01:05:26.212Z,4.73
2024-04-30T01:07:56.410Z,4.30
2024-04-30T01:10:27.124Z,4.62
2024-04-30T01:12:59.968Z,4.72
2024-04-30T01:15:29.898Z,4.20
2024-04-30T01:17:59.855Z,5.17
2024-04-30T01:20:29.883Z,4.87
2024-04-30T01:22:59.975Z,5.23
2024-04-30T01:25:29.698Z,4.80
2024-04-30T01:27:59.566Z,4.90
2024-04-30T01:30:29.147Z,5.35
2024-04-30T01:33:00.614Z,4.80
2024-04-30T01:35:30.510Z,5.43
2024-04-30T01:38:00.884Z,5.30
2024-04-30T01:40:30.653Z,5.03
2024-04-30T01:43:00.702Z,5.20
2024-04-30T01:45:30.663Z,5.20
2024-04-30T01:48:03.160Z,4.90
2024-04-30T01:50:33.086Z,5.27
2024-04-30T01:53:03.079Z,5.10
2024-04-30T01:55:33.265Z,4.67
2024-04-30T01:58:03.358Z,4.97
2024-04-30T02:00:33.402Z,5.77
2024-04-30T02:03:03.393Z,5.73
2024-04-30T02:05:33.504Z,4.97
2024-04-30T02:08:03.875Z,4.70
2024-04-30T02:10:33.854Z,5.70
2024-04-30T02:13:05.486Z,5.20
2024-04-30T02:15:35.610Z,5.30
2024-04-30T02:18:06.958Z,5.30
2024-04-30T02:20:36.968Z,5.57
2024-04-30T02:23:06.857Z,5.50
2024-04-30T02:25:37.823Z,5.90
2024-04-30T02:28:09.395Z,6.00
2024-04-30T02:30:56.854Z,4.80
2024-04-30T02:33:44.455Z,5.47
2024-04-30T02:36:14.582Z,5.60
2024-04-30T02:38:44.456Z,5.63
2024-04-30T02:41:14.567Z,5.63
2024-04-30T02:43:44.468Z,5.90
2024-04-30T02:46:14.408Z,5.67
2024-04-30T02:48:44.214Z,5.73
2024-04-30T02:51:14.192Z,5.83
2024-04-30T02:53:44.189Z,5.67
2024-04-30T02:56:15.089Z,5.83
2024-04-30T02:58:45.034Z,6.40
2024-04-30T03:01:15.685Z,6.00
2024-04-30T03:03:47.466Z,5.90
2024-04-30T03:06:17.420Z,6.47
2024-04-30T03:08:47.352Z,5.87
2024-04-30T03:11:17.271Z,6.87
2024-04-30T03:13:47.280Z,6.00
2024-04-30T03:16:17.188Z,6.03
2024-04-30T03:18:47.381Z,6.72
2024-04-30T03:21:17.302Z,7.30
2024-04-30T03:23:47.172Z,6.43
2024-04-30T03:26:17.032Z,6.30
2024-04-30T03:28:46.952Z,7.13
2024-04-30T03:31:18.563Z,7.00
2024-04-30T03:33:48.412Z,6.83
2024-04-30T03:36:19.754Z,7.03
2024-04-30T03:38:49.887Z,7.65
2024-04-30T03:41:19.806Z,7.23
2024-04-30T03:43:49.994Z,7.17
2024-04-30T03:46:19.948Z,7.35
2024-04-30T03:48:49.861Z,7.43
2024-04-30T03:51:20.540Z,7.67
2024-04-30T03:53:50.491Z,8.90
2024-04-30T03:56:20.146Z,7.43
2024-04-30T03:58:50.052Z,8.40
2024-04-30T04:01:20.308Z,7.37
2024-04-30T04:03:50.239Z,7.90
2024-04-30T04:06:19.954Z,7.73
2024-04-30T04:08:49.902Z,8.30
2024-04-30T04:11:37.567Z,8.30
2024-04-30T04:14:26.836Z,8.70
2024-04-30T04:16:56.590Z,8.55
2024-04-30T04:19:27.395Z,9.60
2024-04-30T04:21:57.542Z,8.27
2024-04-30T04:24:27.783Z,8.35
2024-04-30T04:26:57.417Z,7.70
2024-04-30T04:29:27.287Z,7.47
2024-04-30T04:31:58.954Z,8.37
2024-04-30T04:34:29.071Z,7.83
2024-04-30T04:36:58.911Z,8.40
2024-04-30T04:39:28.572Z,8.30
2024-04-30T04:41:58.489Z,8.43
2024-04-30T04:44:28.657Z,8.63
2024-04-30T04:46:58.563Z,8.63
2024-04-30T04:49:28.695Z,8.90
2024-04-30T04:51:58.847Z,8.03
2024-04-30T04:54:28.703Z,8.80
2024-04-30T04:56:58.606Z,8.53
2024-04-30T04:59:28.540Z,7.90
2024-04-30T05:01:58.506Z,7.67
2024-04-30T05:04:28.807Z,8.20
2024-04-30T05:07:01.072Z,8.98
2024-04-30T05:09:30.383Z,8.40
2024-04-30T05:12:00.268Z,9.30
2024-04-30T05:14:30.311Z,8.97
2024-04-30T05:17:00.329Z,8.57
2024-04-30T05:19:30.548Z,8.50
2024-04-30T05:22:00.832Z,9.00
2024-04-30T05:24:30.839Z,8.40
2024-04-30T05:27:00.798Z,8.83
2024-04-30T05:29:32.014Z,8.80
2024-04-30T05:32:02.291Z,9.15
2024-04-30T05:34:32.328Z,8.50
2024-04-30T05:37:02.396Z,9.30
2024-04-30T05:39:32.359Z,8.73
2024-04-30T05:42:04.020Z,8.60
2024-04-30T05:44:34.268Z,8.45
2024-04-30T05:47:04.215Z,9.15
2024-04-30T05:49:34.659Z,8.33
2024-04-30T05:52:05.081Z,8.63
2024-04-30T05:54:35.306Z,8.18
2024-04-30T05:57:05.574Z,8.10
2024-04-30T05:59:35.483Z,8.60
2024-04-30T06:02:05.586Z,7.87
2024-04-30T06:04:35.870Z,7.72
2024-04-30T06:07:06.134Z,8.20
2024-04-30T06:09:37.220Z,8.23
2024-04-30T06:12:09.046Z,8.90
2024-04-30T06:14:39.520Z,8.10
2024-04-30T06:17:10.427Z,7.43
2024-04-30T06:19:40.814Z,7.03
2024-04-30T06:22:11.625Z,7.63
2024-04-30T06:24:42.153Z,8.50
2024-04-30T06:27:13.938Z,7.07
2024-04-30T06:29:44.187Z,7.40
2024-04-30T06:32:17.021Z,7.33
2024-04-30T06:34:47.247Z,8.20
2024-04-30T06:37:17.444Z,7.30
2024-04-30T06:39:52.314Z,7.70
2024-04-30T06:42:22.220Z,7.37
2024-04-30T06:44:52.319Z,6.87
2024-04-30T06:47:31.284Z,7.30
2024-04-30T06:50:03.059Z,7.13
2024-04-30T06:52:35.021Z,7.20
2024-04-30T06:55:05.574Z,7.20
2024-04-30T06:57:35.690Z,6.67
2024-04-30T07:00:11.466Z,7.18
2024-04-30T07:02:43.611Z,6.83
2024-04-30T07:05:13.086Z,6.25
2024-04-30T07:07:45.223Z,5.27
2024-04-30T07:10:15.204Z,5.80
2024-04-30T07:12:45.411Z,5.87
2024-04-30T07:15:15.270Z,4.47
2024-04-30T07:17:47.228Z,4.85
2024-04-30T07:20:17.277Z,5.67
2024-04-30T07:22:47.459Z,4.27
2024-04-30T07:25:19.050Z,4.70
2024-04-30T07:27:53.783Z,3.70
2024-04-30T07:30:23.718Z,4.67
2024-04-30T07:32:53.975Z,4.70
2024-04-30T07:35:23.997Z,4.30
2024-04-30T07:37:54.118Z,5.60
2024-04-30T07:40:23.893Z,5.13
2024-04-30T07:42:54.037Z,4.20
2024-04-30T07:45:23.926Z,3.63
2024-04-30T07:47:54.134Z,4.25
2024-04-30T07:50:24.129Z,3.62
2024-04-30T07:52:53.872Z,3.65
2024-04-30T07:55:23.586Z,3.80
2024-04-30T07:57:53.411Z,3.40
2024-04-30T08:00:23.245Z,2.80
2024-04-30T08:02:53.155Z,2.90
2024-04-30T08:05:24.007Z,2.60
2024-04-30T08:07:53.958Z,2.63
2024-04-30T08:10:23.589Z,2.47
2024-04-30T08:12:53.759Z,2.62
2024-04-30T08:15:25.519Z,2.03
2024-04-30T08:17:55.523Z,2.70
2024-04-30T08:20:27.082Z,2.33
2024-04-30T08:22:57.565Z,2.45
2024-04-30T08:25:27.478Z,2.20
2024-04-30T08:27:57.412Z,2.63
2024-04-30T08:30:27.792Z,2.22
2024-04-30T08:33:00.040Z,2.40
2024-04-30T08:35:29.911Z,2.70
2024-04-30T08:38:01.420Z,2.90
2024-04-30T08:40:31.336Z,2.27
2024-04-30T08:43:01.405Z,2.33
2024-04-30T08:45:33.510Z,2.43
2024-04-30T08:48:06.086Z,1.90
2024-04-30T08:50:38.436Z,1.77
2024-04-30T08:53:10.546Z,1.83
2024-04-30T08:55:43.014Z,1.80
2024-04-30T08:58:13.180Z,1.60
2024-04-30T09:00:44.847Z,1.50
2024-04-30T09:03:15.849Z,1.70
2024-04-30T09:05:46.674Z,1.67
2024-04-30T09:08:17.072Z,1.60
2024-04-30T09:10:48.085Z,1.70
2024-04-30T09:13:19.780Z,1.97
2024-04-30T09:16:01.993Z,2.10
2024-04-30T09:18:33.438Z,2.30
2024-04-30T09:21:16.172Z,2.40
2024-04-30T09:23:35.691Z,2.43
2024-04-30T09:26:08.442Z,2.45
2024-04-30T09:28:38.501Z,2.30
2024-04-30T09:31:10.062Z,2.60
2024-04-30T09:33:40.232Z,2.23
2024-04-30T09:36:13.600Z,2.77
2024-04-30T09:38:44.726Z,2.93
2024-04-30T09:41:15.151Z,2.67
2024-04-30T09:43:45.410Z,2.30
2024-04-30T09:46:17.988Z,2.30
2024-04-30T09:48:50.005Z,2.63
2024-04-30T09:51:22.567Z,3.00
2024-04-30T09:53:55.374Z,2.87
2024-04-30T09:56:26.759Z,1.85
2024-04-30T09:58:57.231Z,1.97
2024-04-30T10:01:30.191Z,2.03
2024-04-30T10:04:02.965Z,1.90
2024-04-30T10:06:33.622Z,1.90
2024-04-30T10:09:04.451Z,2.10
2024-04-30T10:11:34.480Z,1.80
2024-04-30T10:14:04.399Z,1.93
2024-04-30T10:16:34.398Z,1.70
2024-04-30T10:19:05.780Z,1.90
2024-04-30T10:21:36.922Z,1.67
2024-04-30T10:24:24.037Z,1.73
2024-04-30T10:26:53.969Z,1.87
2024-04-30T10:29:24.128Z,2.02
2024-04-30T10:31:57.088Z,1.87
2024-04-30T10:34:25.714Z,1.65
2024-04-30T10:36:55.426Z,2.10
2024-04-30T10:39:26.814Z,1.93
2024-04-30T10:41:56.994Z,2.33
2024-04-30T10:44:26.800Z,2.10
2024-04-30T10:46:59.397Z,2.10
2024-04-30T10:49:29.507Z,2.07
2024-04-30T10:51:59.495Z,2.17
2024-04-30T10:54:30.338Z,2.10
2024-04-30T10:57:00.447Z,2.30
2024-04-30T10:59:30.792Z,2.17
2024-04-30T11:02:01.002Z,2.03
2024-04-30T11:04:32.436Z,1.73
2024-04-30T11:07:03.175Z,1.83
2024-04-30T11:09:40.809Z,1.80
2024-04-30T11:12:11.811Z,1.40
2024-04-30T11:14:45.714Z,1.47
2024-04-30T11:17:20.422Z,1.63
2024-04-30T11:19:50.166Z,1.35
2024-04-30T11:22:21.410Z,2.00
2024-04-30T11:24:51.476Z,1.20
2024-04-30T11:27:21.387Z,2.03
2024-04-30T11:29:51.318Z,1.40
2024-04-30T11:32:21.127Z,1.80
2024-04-30T11:34:53.029Z,1.85
2024-04-30T11:37:23.078Z,1.77
2024-04-30T11:39:53.093Z,1.80
2024-04-30T11:42:30.570Z,2.15
2024-04-30T11:44:56.296Z,2.00
2024-04-30T11:47:26.328Z,2.03
2024-04-30T11:49:56.327Z,1.63
2024-04-30T11:52:26.218Z,1.33
2024-04-30T11:54:56.098Z,1.40
2024-04-30T11:57:26.001Z,1.43
2024-04-30T11:59:58.654Z,1.73
2024-04-30T12:02:28.590Z,1.27
2024-04-30T12:04:58.651Z,1.57
2024-04-30T12:07:28.734Z,1.30
2024-04-30T12:10:00.322Z,1.67
2024-04-30T12:12:30.012Z,1.40
2024-04-30T12:14:59.862Z,1.37
2024-04-30T12:17:29.892Z,2.03
2024-04-30T12:19:59.942Z,1.10
2024-04-30T12:22:30.103Z,1.50
2024-04-30T12:25:00.496Z,1.07
2024-04-30T12:27:30.404Z,1.13
2024-04-30T12:30:00.073Z,1.22
2024-04-30T12:32:30.125Z,1.50
2024-04-30T12:34:59.984Z,1.30
2024-04-30T12:37:30.231Z,1.50
2024-04-30T12:40:00.855Z,1.63
2024-04-30T12:42:31.583Z,1.70
2024-04-30T12:45:01.533Z,1.70
2024-04-30T12:47:31.501Z,1.60
2024-04-30T12:50:01.599Z,1.73
2024-04-30T12:52:31.587Z,1.90
2024-04-30T12:55:01.512Z,1.80
2024-04-30T12:57:31.509Z,1.80
2024-04-30T13:00:01.474Z,1.33
2024-04-30T13:02:31.180Z,1.63
2024-04-30T13:05:01.433Z,1.50
2024-04-30T13:07:32.380Z,1.33
2024-04-30T13:10:02.332Z,1.00
2024-04-30T13:12:33.200Z,1.10
2024-04-30T13:15:03.383Z,1.23
2024-04-30T13:17:33.584Z,1.17
2024-04-30T13:20:03.518Z,1.30
2024-04-30T13:22:33.581Z,1.73
2024-04-30T13:25:03.861Z,1.37
2024-04-30T13:27:34.704Z,1.20
2024-04-30T13:30:05.809Z,1.55
2024-04-30T13:32:36.194Z,1.62
2024-04-30T13:35:07.758Z,1.60
2024-04-30T13:37:39.791Z,1.17
2024-04-30T13:40:11.182Z,1.63
2024-04-30T13:42:41.048Z,0.90
2024-04-30T13:45:10.990Z,1.12
2024-04-30T13:47:40.833Z,1.10
2024-04-30T13:50:11.822Z,1.63
2024-04-30T13:52:42.374Z,1.10
2024-04-30T13:55:12.301Z,1.20
2024-04-30T13:57:44.829Z,1.93
2024-04-30T14:00:15.867Z,1.25
2024-04-30T14:02:48.464Z,1.00
2024-04-30T14:05:19.073Z,1.40
2024-04-30T14:07:48.963Z,2.03
2024-04-30T14:10:19.537Z,1.38
2024-04-30T14:12:49.683Z,1.40
2024-04-30T14:15:19.352Z,1.10
2024-04-30T14:17:49.620Z,1.37
2024-04-30T14:20:19.313Z,1.20
2024-04-30T14:22:49.354Z,1.20
2024-04-30T14:25:19.536Z,1.45
2024-04-30T14:27:49.465Z,1.60
2024-04-30T14:30:19.060Z,1.60
2024-04-30T14:32:48.982Z,1.60
2024-04-30T14:35:19.303Z,1.30
2024-04-30T14:37:49.350Z,1.40
2024-04-30T14:40:19.440Z,1.77
2024-04-30T14:42:49.331Z,1.43
2024-04-30T14:45:18.949Z,1.50
2024-04-30T14:47:48.815Z,1.27
2024-04-30T14:50:18.914Z,1.27
2024-04-30T14:52:49.123Z,1.33
2024-04-30T14:55:18.779Z,1.63
2024-04-30T14:57:48.725Z,1.40
2024-04-30T15:00:18.843Z,1.90
2024-04-30T15:02:48.814Z,2.20
2024-04-30T15:05:18.782Z,1.50
2024-04-30T15:07:48.672Z,1.00
2024-04-30T15:10:18.413Z,1.64
2024-04-30T15:12:48.350Z,1.97
2024-04-30T15:15:18.269Z,1.30
2024-04-30T15:17:47.982Z,1.80
2024-04-30T15:20:17.946Z,2.05
2024-04-30T15:22:47.812Z,1.93
2024-04-30T15:25:17.779Z,1.73
2024-04-30T15:27:49.340Z,1.80
2024-04-30T15:30:19.256Z,1.85
2024-04-30T15:32:50.966Z,1.37
2024-04-30T15:35:22.222Z,1.20
2024-04-30T15:37:52.145Z,1.80
2024-04-30T15:40:22.017Z,1.62
2024-04-30T15:42:51.947Z,1.50
2024-04-30T15:45:21.788Z,1.65
2024-04-30T15:47:51.707Z,1.93
2024-04-30T15:50:21.549Z,1.95
2024-04-30T15:52:51.534Z,2.47
2024-04-30T15:55:22.185Z,2.07
2024-04-30T15:57:52.034Z,1.60
2024-04-30T16:00:21.693Z,2.40
2024-04-30T16:02:51.637Z,2.07
2024-04-30T16:05:22.859Z,1.42
2024-04-30T16:07:54.121Z,2.17
2024-04-30T16:10:24.646Z,1.80
2024-04-30T16:12:54.483Z,1.70
2024-04-30T16:15:24.389Z,1.80
2024-04-30T16:17:54.794Z,1.90
2024-04-30T16:20:25.039Z,1.80
2024-04-30T16:22:55.051Z,3.00
2024-04-30T16:25:24.640Z,1.70
2024-04-30T16:27:54.626Z,1.47
2024-04-30T16:30:24.530Z,1.73
2024-04-30T16:32:54.938Z,1.93
2024-04-30T16:35:24.789Z,2.17
2024-04-30T16:37:55.043Z,2.20
2024-04-30T16:40:24.891Z,1.70
2024-04-30T16:42:55.867Z,1.60
2024-04-30T16:45:25.676Z,2.23
2024-04-30T16:47:55.718Z,2.23
2024-04-30T16:50:25.791Z,1.45
2024-04-30T16:52:57.796Z,1.80
2024-04-30T16:55:29.231Z,1.90
2024-04-30T16:58:04.046Z,1.60
2024-04-30T17:00:34.295Z,2.05
2024-04-30T17:03:04.674Z,2.00
2024-04-30T17:05:35.127Z,2.07
2024-04-30T17:08:07.646Z,1.80
2024-04-30T17:10:39.358Z,2.00
2024-04-30T17:13:09.856Z,1.85
2024-04-30T17:15:41.482Z,1.93
2024-04-30T17:18:13.626Z,2.05
2024-04-30T17:20:44.616Z,1.60
2024-04-30T17:23:14.662Z,1.60
2024-04-30T17:25:44.646Z,1.93
2024-04-30T17:28:16.374Z,1.93
2024-04-30T17:30:46.368Z,1.50
2024-04-30T17:33:16.540Z,1.70
2024-04-30T17:35:46.467Z,1.57
2024-04-30T17:38:16.979Z,1.60
2024-04-30T17:40:46.907Z,2.23
2024-04-30T17:43:16.779Z,1.60
2024-04-30T17:45:46.742Z,1.60
2024-04-30T17:48:16.580Z,1.80
2024-04-30T17:50:46.647Z,2.10
2024-04-30T17:53:17.437Z,1.50
2024-04-30T17:55:47.837Z,2.15
2024-04-30T17:58:20.227Z,1.53
2024-04-30T18:00:49.489Z,1.83
2024-04-30T18:03:19.527Z,1.60
2024-04-30T18:05:51.101Z,1.90
2024-04-30T18:08:20.996Z,2.45
2024-04-30T18:10:54.170Z,2.60
2024-04-30T18:13:22.595Z,2.23
2024-04-30T18:15:52.550Z,2.07
2024-04-30T18:18:24.383Z,2.00
2024-04-30T18:20:54.405Z,1.60
2024-04-30T18:23:24.392Z,2.37
2024-04-30T18:25:54.680Z,1.98
2024-04-30T18:28:24.478Z,1.80
2024-04-30T18:30:54.794Z,2.20
2024-04-30T18:33:25.186Z,1.95
2024-04-30T18:35:55.225Z,1.60
2024-04-30T18:38:24.828Z,1.97
2024-04-30T18:40:55.674Z,2.13
2024-04-30T18:43:25.967Z,1.67
2024-04-30T18:45:56.107Z,1.60
2024-04-30T18:48:28.180Z,2.20
2024-04-30T18:50:58.346Z,2.27
2024-04-30T18:53:28.571Z,1.93
2024-04-30T18:55:59.860Z,2.23
2024-04-30T18:58:29.879Z,2.00
2024-04-30T19:01:01.177Z,1.87
2024-04-30T19:03:31.251Z,2.00
2024-04-30T19:06:01.873Z,2.27
2024-04-30T19:08:38.369Z,1.70
2024-04-30T19:11:09.549Z,1.90
2024-04-30T19:13:40.219Z,2.67
2024-04-30T19:16:11.170Z,2.60
2024-04-30T19:18:43.006Z,2.00
2024-04-30T19:21:13.799Z,2.50
2024-04-30T19:23:43.795Z,2.30
2024-04-30T19:26:19.796Z,2.22
2024-04-30T19:28:49.930Z,2.10
2024-04-30T19:31:21.631Z,2.15
2024-04-30T19:33:51.788Z,2.40
2024-04-30T19:36:23.622Z,2.30
2024-04-30T19:38:55.602Z,2.77
2024-04-30T19:41:26.297Z,2.70
2024-04-30T19:43:56.558Z,2.47
2024-04-30T19:46:26.860Z,2.22
2024-04-30T19:48:57.831Z,2.33
2024-04-30T19:51:28.262Z,2.40
2024-04-30T19:53:58.741Z,2.70
2024-04-30T19:56:28.790Z,2.90
2024-04-30T19:59:08.325Z,2.97
2024-04-30T20:01:40.878Z,2.50
2024-04-30T20:04:11.810Z,2.45
2024-04-30T20:06:45.249Z,2.40
2024-04-30T20:09:17.357Z,2.90
2024-04-30T20:11:47.538Z,2.87
2024-04-30T20:14:17.369Z,3.03
2024-04-30T20:16:47.484Z,2.90
2024-04-30T20:19:17.855Z,2.72
2024-04-30T20:21:53.462Z,2.53
2024-04-30T20:24:23.506Z,2.37
2024-04-30T20:26:55.837Z,4.00
2024-04-30T20:29:28.408Z,3.10
2024-04-30T20:31:58.877Z,3.67
2024-04-30T20:34:33.516Z,2.90
2024-04-30T20:37:04.061Z,3.40
2024-04-30T20:39:37.060Z,3.10
2024-04-30T20:42:13.511Z,3.30
2024-04-30T20:44:43.505Z,3.20
2024-04-30T20:47:20.988Z,3.33
2024-04-30T20:49:57.334Z,3.37
2024-04-30T20:52:27.547Z,3.37
2024-04-30T20:54:58.085Z,3.45
2024-04-30T20:57:28.056Z,3.53
2024-04-30T20:59:58.000Z,3.17
2024-04-30T21:02:28.292Z,3.33
2024-04-30T21:04:58.485Z,3.70
2024-04-30T21:07:28.967Z,3.98
2024-04-30T21:09:59.378Z,3.60
2024-04-30T21:12:29.844Z,3.23
2024-04-30T21:15:00.196Z,3.63
2024-04-30T21:17:30.474Z,3.80
2024-04-30T21:20:04.269Z,4.40
2024-04-30T21:22:34.467Z,3.60
2024-04-30T21:25:04.695Z,3.63
2024-04-30T21:27:34.723Z,3.47
2024-04-30T21:30:07.475Z,3.43
2024-04-30T21:32:37.947Z,3.95
2024-04-30T21:35:10.238Z,3.63
2024-04-30T21:37:46.983Z,3.80
2024-04-30T21:40:17.504Z,4.25
2024-04-30T21:42:47.659Z,4.10
2024-04-30T21:45:17.771Z,3.80
2024-04-30T21:47:48.298Z,4.17
2024-04-30T21:50:19.624Z,4.00
2024-04-30T21:52:49.664Z,3.50
2024-04-30T21:55:19.758Z,4.13
2024-04-30T21:57:51.656Z,4.10
2024-04-30T22:00:22.103Z,4.28
2024-04-30T22:02:57.464Z,4.53
2024-04-30T22:05:23.668Z,5.00
2024-04-30T22:07:54.097Z,3.90
2024-04-30T22:10:26.663Z,4.42
2024-04-30T22:12:59.557Z,3.85
2024-04-30T22:15:29.730Z,4.35
2024-04-30T22:18:00.332Z,3.27
2024-04-30T22:20:34.256Z,3.22
2024-04-30T22:23:04.920Z,3.95
2024-04-30T22:25:34.919Z,3.60
2024-04-30T22:28:06.618Z,3.70
2024-04-30T22:30:41.008Z,3.93
2024-04-30T22:33:11.419Z,3.40
2024-04-30T22:35:41.453Z,3.40
2024-04-30T22:38:11.623Z,4.40
2024-04-30T22:40:41.702Z,3.30
2024-04-30T22:43:11.531Z,3.65
2024-04-30T22:45:41.770Z,3.47
2024-04-30T22:48:12.202Z,4.00
2024-04-30T22:50:42.293Z,3.77
2024-04-30T22:53:12.379Z,3.70
2024-04-30T22:55:42.990Z,3.35
2024-04-30T22:58:13.435Z,3.98
2024-04-30T23:00:43.462Z,4.00
2024-04-30T23:03:13.970Z,4.20
2024-04-30T23:05:43.937Z,3.20
2024-04-30T23:08:13.948Z,4.10
2024-04-30T23:10:43.922Z,3.93
2024-04-30T23:13:13.877Z,3.50
2024-04-30T23:15:43.989Z,3.60
2024-04-30T23:18:14.210Z,3.72
2024-04-30T23:20:44.287Z,4.00
2024-04-30T23:23:14.186Z,3.70
2024-04-30T23:25:44.062Z,3.70
2024-04-30T23:28:14.064Z,3.52
2024-04-30T23:30:44.121Z,2.87
2024-04-30T23:33:14.201Z,3.80
2024-04-30T23:35:44.138Z,3.70
2024-04-30T23:38:14.115Z,3.33
2024-04-30T23:40:44.185Z,4.10
2024-04-30T23:43:14.224Z,3.50
2024-04-30T23:45:44.381Z,3.90
2024-04-30T23:48:14.513Z,3.25
2024-04-30T23:50:45.011Z,4.47
2024-04-30T23:53:14.941Z,3.43
2024-04-30T23:55:44.919Z,3.13
2024-04-30T23:58:15.022Z,3.90
